Pagina principale
METAR-TAF:

METAR-TAF

Aeroporti :

Aeroporto di Gibilterra

Gibilterra, Gibilterra

latitudine: 36-09N, longitudine: 005-21W, altezza: 5 m

Osservazione

Il bollettino è stato emesso 39 minuti fa, alle 18:50 UTC
Vento 13 kt da ovest/sud-ovest
Temperature 28°C
Umidità 45%
Pressione 1014 hPa
Visibilità 10 km o più

METAR: LXGB 141850Z AUTO 25013KT 9999 // NCD 28/15 Q1014

Ora: 21:29 (19:29 UTC)

Previsione

Il bollettino è stato emesso 6 ore e 7 minuti fa, alle 13:22 UTC
Previsione valida dal 14 alle 15 UTC al 14 alle 22 UTC
Vento 10 kt da ovest/sud-ovest
Visibilità 10 km o più
Poco nuvoloso ad un'altezza di 3000 ft
Temporaneamente
dal 14 alle 15 UTC al 14 alle 18 UTC
Vento 13 kt da sud/sud-ovest
Probabilità 30% :
Temporaneamente
dal 14 alle 15 UTC al 14 alle 17 UTC
Vento 15 kt da sud con raffiche fino a 25 kt

TAF: LXGB 141322Z 1415/1422 24010KT 9999 FEW030 TEMPO 1415/1418 21013KT 520001 PROB30 TEMPO 1415/1417 19015G25KT 530001

Osservazioni e previsioni meteorologiche di più di 4000 aeroporti (messaggi METAR e TAF).

Le stazioni disponibili sono rappresentate dai dischi gialli e rossi sulla carta.

Puntare il mouse per vedere il nome della stazione.

Clicca sopra per visualizzare le osservazioni e previsioni meteorologiche.

Per cambiare la mappa : fare clic sui pulsanti verdi con una croce nera per ingrandire, il pulsante verde con un trattino per diminuire, o sulla freccia verde per le mappe adiacenti.


METAR-TAF: